sensor_id;sensor_type;location;lat;lon;timestamp;P1;durP1;ratioP1;P2;durP2;ratioP2
67941;SDS011;54731;42.600;23.476;2023-09-19T09:54:34;5.35;;;3.30;;
67941;SDS011;54731;42.600;23.476;2023-09-19T09:57:01;4.55;;;3.38;;
67941;SDS011;54731;42.600;23.476;2023-09-19T10:02:25;5.40;;;3.50;;
67941;SDS011;54731;42.600;23.476;2023-09-19T10:04:51;6.70;;;4.45;;
67941;SDS011;54731;42.600;23.476;2023-09-19T10:07:24;5.70;;;4.00;;
67941;SDS011;54731;42.600;23.476;2023-09-19T10:09:53;4.85;;;3.28;;
67941;SDS011;54731;42.600;23.476;2023-09-19T10:12:18;9.33;;;3.57;;
67941;SDS011;54731;42.600;23.476;2023-09-19T10:14:45;8.48;;;3.70;;
67941;SDS011;54731;42.600;23.476;2023-09-19T10:17:10;5.07;;;3.30;;
67941;SDS011;54731;42.600;23.476;2023-09-19T10:22:33;5.10;;;3.42;;
67941;SDS011;54731;42.600;23.476;2023-09-19T10:24:59;3.97;;;3.45;;
67941;SDS011;54731;42.600;23.476;2023-09-19T10:27:27;6.45;;;3.38;;
67941;SDS011;54731;42.600;23.476;2023-09-19T10:29:54;4.50;;;3.43;;
67941;SDS011;54731;42.600;23.476;2023-09-19T10:32:22;5.70;;;3.38;;
67941;SDS011;54731;42.600;23.476;2023-09-19T10:34:57;4.22;;;3.42;;
67941;SDS011;54731;42.600;23.476;2023-09-19T10:37:22;6.03;;;3.03;;
67941;SDS011;54731;42.600;23.476;2023-09-19T10:39:51;4.65;;;3.50;;
67941;SDS011;54731;42.600;23.476;2023-09-19T10:42:18;4.60;;;3.77;;
67941;SDS011;54731;42.600;23.476;2023-09-19T10:44:45;7.63;;;3.40;;
67941;SDS011;54731;42.600;23.476;2023-09-19T10:47:13;6.15;;;3.65;;
67941;SDS011;54731;42.600;23.476;2023-09-19T10:49:45;10.40;;;7.45;;
67941;SDS011;54731;42.600;23.476;2023-09-19T10:52:11;6.07;;;4.27;;
67941;SDS011;54731;42.600;23.476;2023-09-19T10:54:41;6.30;;;3.22;;
67941;SDS011;54731;42.600;23.476;2023-09-19T10:57:18;6.65;;;3.83;;
67941;SDS011;54731;42.600;23.476;2023-09-19T11:05:34;6.07;;;3.70;;
67941;SDS011;54731;42.600;23.476;2023-09-19T11:07:59;5.07;;;3.50;;
67941;SDS011;54731;42.600;23.476;2023-09-19T11:13:23;6.85;;;3.47;;
67941;SDS011;54731;42.600;23.476;2023-09-19T11:21:39;6.13;;;3.47;;
67941;SDS011;54731;42.600;23.476;2023-09-19T11:26:41;8.07;;;4.15;;
67941;SDS011;54731;42.600;23.476;2023-09-19T11:29:26;5.43;;;3.83;;
67941;SDS011;54731;42.600;23.476;2023-09-19T11:31:52;4.00;;;3.47;;
67941;SDS011;54731;42.600;23.476;2023-09-19T11:37:01;7.05;;;3.58;;
67941;SDS011;54731;42.600;23.476;2023-09-19T11:39:27;4.57;;;3.65;;
67941;SDS011;54731;42.600;23.476;2023-09-19T11:41:52;6.90;;;3.47;;
67941;SDS011;54731;42.600;23.476;2023-09-19T11:46:53;5.33;;;3.40;;
67941;SDS011;54731;42.600;23.476;2023-09-19T11:49:26;6.47;;;3.28;;
67941;SDS011;54731;42.600;23.476;2023-09-19T11:51:53;7.93;;;3.95;;
67941;SDS011;54731;42.600;23.476;2023-09-19T11:54:18;5.70;;;3.40;;
67941;SDS011;54731;42.600;23.476;2023-09-19T11:56:44;6.80;;;3.90;;
67941;SDS011;54731;42.600;23.476;2023-09-19T11:59:10;8.57;;;3.80;;
67941;SDS011;54731;42.600;23.476;2023-09-19T12:01:36;4.85;;;3.53;;
67941;SDS011;54731;42.600;23.476;2023-09-19T12:04:07;6.57;;;3.57;;
67941;SDS011;54731;42.600;23.476;2023-09-19T12:06:35;4.50;;;3.22;;
67941;SDS011;54731;42.600;23.476;2023-09-19T12:09:01;6.20;;;3.20;;
67941;SDS011;54731;42.600;23.476;2023-09-19T12:11:30;6.00;;;3.45;;
67941;SDS011;54731;42.600;23.476;2023-09-19T12:13:56;7.78;;;3.63;;
67941;SDS011;54731;42.600;23.476;2023-09-19T12:16:21;6.60;;;4.03;;
67941;SDS011;54731;42.600;23.476;2023-09-19T12:18:47;5.50;;;3.60;;
67941;SDS011;54731;42.600;23.476;2023-09-19T12:24:11;5.28;;;3.70;;
67941;SDS011;54731;42.600;23.476;2023-09-19T12:26:40;5.00;;;3.88;;
67941;SDS011;54731;42.600;23.476;2023-09-19T12:29:11;4.23;;;3.80;;
67941;SDS011;54731;42.600;23.476;2023-09-19T12:31:50;6.28;;;4.07;;
67941;SDS011;54731;42.600;23.476;2023-09-19T12:34:20;6.18;;;4.38;;
67941;SDS011;54731;42.600;23.476;2023-09-19T12:37:11;6.18;;;4.07;;
67941;SDS011;54731;42.600;23.476;2023-09-19T12:39:41;5.82;;;3.72;;
67941;SDS011;54731;42.600;23.476;2023-09-19T12:42:08;6.53;;;4.10;;
67941;SDS011;54731;42.600;23.476;2023-09-19T12:44:36;7.18;;;3.83;;
67941;SDS011;54731;42.600;23.476;2023-09-19T12:47:12;6.55;;;4.07;;
67941;SDS011;54731;42.600;23.476;2023-09-19T12:52:41;6.10;;;4.35;;
67941;SDS011;54731;42.600;23.476;2023-09-19T12:55:27;10.90;;;3.93;;
67941;SDS011;54731;42.600;23.476;2023-09-19T12:58:14;4.18;;;3.72;;
67941;SDS011;54731;42.600;23.476;2023-09-19T13:00:40;8.70;;;3.60;;
67941;SDS011;54731;42.600;23.476;2023-09-19T13:03:19;6.40;;;3.28;;
67941;SDS011;54731;42.600;23.476;2023-09-19T13:05:57;5.55;;;4.45;;
67941;SDS011;54731;42.600;23.476;2023-09-19T13:08:24;6.33;;;4.43;;
67941;SDS011;54731;42.600;23.476;2023-09-19T13:11:35;4.78;;;3.65;;
67941;SDS011;54731;42.600;23.476;2023-09-19T13:16:04;9.13;;;4.53;;
67941;SDS011;54731;42.600;23.476;2023-09-19T13:18:30;7.18;;;4.40;;
67941;SDS011;54731;42.600;23.476;2023-09-19T13:21:08;7.40;;;4.40;;
67941;SDS011;54731;42.600;23.476;2023-09-19T13:23:34;5.10;;;4.20;;
67941;SDS011;54731;42.600;23.476;2023-09-19T13:25:59;7.07;;;3.90;;
67941;SDS011;54731;42.600;23.476;2023-09-19T13:28:25;5.97;;;4.13;;
67941;SDS011;54731;42.600;23.476;2023-09-19T13:30:50;6.43;;;4.57;;
67941;SDS011;54731;42.600;23.476;2023-09-19T13:33:15;5.20;;;4.57;;
67941;SDS011;54731;42.600;23.476;2023-09-19T13:35:41;8.27;;;4.27;;
67941;SDS011;54731;42.600;23.476;2023-09-19T13:38:06;6.63;;;3.57;;
67941;SDS011;54731;42.600;23.476;2023-09-19T13:40:31;8.50;;;4.07;;
67941;SDS011;54731;42.600;23.476;2023-09-19T13:42:57;8.40;;;4.55;;
67941;SDS011;54731;42.600;23.476;2023-09-19T13:45:22;6.93;;;4.27;;
67941;SDS011;54731;42.600;23.476;2023-09-19T13:47:48;4.43;;;4.00;;
67941;SDS011;54731;42.600;23.476;2023-09-19T13:50:13;7.30;;;4.47;;
67941;SDS011;54731;42.600;23.476;2023-09-19T13:52:39;6.47;;;4.23;;
67941;SDS011;54731;42.600;23.476;2023-09-19T13:55:04;5.35;;;4.30;;
67941;SDS011;54731;42.600;23.476;2023-09-19T13:57:30;6.50;;;4.43;;
67941;SDS011;54731;42.600;23.476;2023-09-19T13:59:55;4.70;;;4.00;;
67941;SDS011;54731;42.600;23.476;2023-09-19T14:02:23;9.23;;;4.20;;
67941;SDS011;54731;42.600;23.476;2023-09-19T14:04:49;9.55;;;4.28;;
67941;SDS011;54731;42.600;23.476;2023-09-19T14:07:14;7.60;;;4.20;;
67941;SDS011;54731;42.600;23.476;2023-09-19T14:09:40;6.22;;;4.03;;
67941;SDS011;54731;42.600;23.476;2023-09-19T14:12:06;9.07;;;5.00;;
67941;SDS011;54731;42.600;23.476;2023-09-19T14:14:32;5.03;;;4.38;;
67941;SDS011;54731;42.600;23.476;2023-09-19T14:16:57;9.93;;;5.03;;
67941;SDS011;54731;42.600;23.476;2023-09-19T14:19:22;4.80;;;3.97;;
67941;SDS011;54731;42.600;23.476;2023-09-19T14:21:48;8.75;;;4.35;;
67941;SDS011;54731;42.600;23.476;2023-09-19T14:24:17;8.63;;;4.95;;
67941;SDS011;54731;42.600;23.476;2023-09-19T14:26:42;5.88;;;4.75;;
67941;SDS011;54731;42.600;23.476;2023-09-19T14:29:08;5.40;;;4.35;;
67941;SDS011;54731;42.600;23.476;2023-09-19T14:31:33;5.93;;;4.20;;
67941;SDS011;54731;42.600;23.476;2023-09-19T14:34:01;5.95;;;4.80;;
67941;SDS011;54731;42.600;23.476;2023-09-19T14:36:26;7.30;;;5.07;;
67941;SDS011;54731;42.600;23.476;2023-09-19T14:38:52;6.10;;;4.70;;
67941;SDS011;54731;42.600;23.476;2023-09-19T14:41:18;6.32;;;4.47;;
67941;SDS011;54731;42.600;23.476;2023-09-19T14:43:43;6.80;;;4.87;;
67941;SDS011;54731;42.600;23.476;2023-09-19T14:46:08;5.13;;;4.50;;
67941;SDS011;54731;42.600;23.476;2023-09-19T14:48:34;7.10;;;4.53;;
67941;SDS011;54731;42.600;23.476;2023-09-19T14:51:06;9.47;;;5.07;;
67941;SDS011;54731;42.600;23.476;2023-09-19T14:53:32;8.88;;;4.63;;
67941;SDS011;54731;42.600;23.476;2023-09-19T14:56:00;5.30;;;4.80;;
67941;SDS011;54731;42.600;23.476;2023-09-19T14:58:29;5.90;;;4.65;;
67941;SDS011;54731;42.600;23.476;2023-09-19T15:01:08;7.17;;;5.00;;
67941;SDS011;54731;42.600;23.476;2023-09-19T15:03:34;6.93;;;4.82;;
67941;SDS011;54731;42.600;23.476;2023-09-19T15:06:03;4.90;;;4.40;;
67941;SDS011;54731;42.600;23.476;2023-09-19T15:08:29;4.97;;;4.30;;
67941;SDS011;54731;42.600;23.476;2023-09-19T15:10:55;5.10;;;4.05;;
67941;SDS011;54731;42.600;23.476;2023-09-19T15:13:21;7.50;;;4.80;;
67941;SDS011;54731;42.600;23.476;2023-09-19T15:15:46;19.02;;;8.98;;
67941;SDS011;54731;42.600;23.476;2023-09-19T15:18:11;13.77;;;7.00;;
67941;SDS011;54731;42.600;23.476;2023-09-19T15:20:41;28.10;;;13.13;;
67941;SDS011;54731;42.600;23.476;2023-09-19T15:23:08;33.80;;;17.93;;
67941;SDS011;54731;42.600;23.476;2023-09-19T15:25:33;23.27;;;13.85;;
67941;SDS011;54731;42.600;23.476;2023-09-19T15:27:58;13.27;;;7.90;;
67941;SDS011;54731;42.600;23.476;2023-09-19T15:30:24;13.63;;;8.23;;
67941;SDS011;54731;42.600;23.476;2023-09-19T15:32:49;14.00;;;7.67;;
67941;SDS011;54731;42.600;23.476;2023-09-19T15:35:15;8.67;;;6.17;;
67941;SDS011;54731;42.600;23.476;2023-09-19T15:37:40;11.23;;;6.80;;
67941;SDS011;54731;42.600;23.476;2023-09-19T15:40:05;9.90;;;6.65;;
67941;SDS011;54731;42.600;23.476;2023-09-19T15:42:34;9.17;;;5.80;;
67941;SDS011;54731;42.600;23.476;2023-09-19T15:44:59;7.03;;;5.47;;
67941;SDS011;54731;42.600;23.476;2023-09-19T15:47:27;11.40;;;5.13;;
67941;SDS011;54731;42.600;23.476;2023-09-19T15:49:55;9.85;;;4.90;;
67941;SDS011;54731;42.600;23.476;2023-09-19T15:52:20;9.65;;;5.35;;
67941;SDS011;54731;42.600;23.476;2023-09-19T15:54:46;8.50;;;5.33;;
67941;SDS011;54731;42.600;23.476;2023-09-19T15:57:17;9.45;;;6.00;;
67941;SDS011;54731;42.600;23.476;2023-09-19T15:59:42;6.95;;;5.90;;
67941;SDS011;54731;42.600;23.476;2023-09-19T16:02:08;9.63;;;5.27;;
67941;SDS011;54731;42.600;23.476;2023-09-19T16:04:33;9.13;;;4.87;;
67941;SDS011;54731;42.600;23.476;2023-09-19T16:06:58;11.33;;;5.00;;
67941;SDS011;54731;42.600;23.476;2023-09-19T16:09:23;7.10;;;4.60;;
67941;SDS011;54731;42.600;23.476;2023-09-19T16:11:52;7.97;;;5.07;;
67941;SDS011;54731;42.600;23.476;2023-09-19T16:14:17;6.82;;;4.63;;
67941;SDS011;54731;42.600;23.476;2023-09-19T16:16:42;11.23;;;5.90;;
67941;SDS011;54731;42.600;23.476;2023-09-19T16:19:08;9.17;;;5.17;;
67941;SDS011;54731;42.600;23.476;2023-09-19T16:21:33;7.53;;;5.00;;
67941;SDS011;54731;42.600;23.476;2023-09-19T16:23:59;8.00;;;4.82;;
67941;SDS011;54731;42.600;23.476;2023-09-19T16:26:25;9.83;;;5.80;;
67941;SDS011;54731;42.600;23.476;2023-09-19T16:28:52;12.45;;;5.80;;
67941;SDS011;54731;42.600;23.476;2023-09-19T16:31:21;13.38;;;6.03;;
67941;SDS011;54731;42.600;23.476;2023-09-19T16:33:47;13.07;;;6.30;;
67941;SDS011;54731;42.600;23.476;2023-09-19T16:36:16;13.80;;;6.22;;
67941;SDS011;54731;42.600;23.476;2023-09-19T16:38:43;14.50;;;6.00;;
67941;SDS011;54731;42.600;23.476;2023-09-19T16:41:10;17.95;;;6.53;;
67941;SDS011;54731;42.600;23.476;2023-09-19T16:43:41;7.57;;;5.05;;
67941;SDS011;54731;42.600;23.476;2023-09-19T16:46:08;8.48;;;4.60;;
67941;SDS011;54731;42.600;23.476;2023-09-19T16:48:34;7.05;;;5.07;;
67941;SDS011;54731;42.600;23.476;2023-09-19T16:51:01;8.10;;;5.73;;
67941;SDS011;54731;42.600;23.476;2023-09-19T16:53:27;12.32;;;6.32;;
67941;SDS011;54731;42.600;23.476;2023-09-19T16:55:53;12.33;;;6.27;;
67941;SDS011;54731;42.600;23.476;2023-09-19T16:58:18;9.07;;;4.77;;
67941;SDS011;54731;42.600;23.476;2023-09-19T17:00:43;10.73;;;5.13;;
67941;SDS011;54731;42.600;23.476;2023-09-19T17:03:11;11.00;;;5.80;;
67941;SDS011;54731;42.600;23.476;2023-09-19T17:05:36;12.80;;;5.97;;
67941;SDS011;54731;42.600;23.476;2023-09-19T17:08:02;8.83;;;5.13;;
67941;SDS011;54731;42.600;23.476;2023-09-19T17:10:31;8.38;;;5.00;;
67941;SDS011;54731;42.600;23.476;2023-09-19T17:12:56;8.37;;;4.40;;
67941;SDS011;54731;42.600;23.476;2023-09-19T17:15:21;10.50;;;5.45;;
67941;SDS011;54731;42.600;23.476;2023-09-19T17:17:47;9.13;;;5.50;;
67941;SDS011;54731;42.600;23.476;2023-09-19T17:20:14;9.27;;;5.83;;
67941;SDS011;54731;42.600;23.476;2023-09-19T17:22:40;12.63;;;5.50;;
67941;SDS011;54731;42.600;23.476;2023-09-19T17:25:09;11.20;;;5.80;;
67941;SDS011;54731;42.600;23.476;2023-09-19T17:27:35;11.03;;;5.30;;
67941;SDS011;54731;42.600;23.476;2023-09-19T17:30:00;7.88;;;4.35;;
67941;SDS011;54731;42.600;23.476;2023-09-19T17:32:25;8.87;;;4.57;;
67941;SDS011;54731;42.600;23.476;2023-09-19T17:34:51;12.43;;;4.93;;
67941;SDS011;54731;42.600;23.476;2023-09-19T17:37:16;6.38;;;4.68;;
67941;SDS011;54731;42.600;23.476;2023-09-19T17:39:41;10.53;;;4.83;;
67941;SDS011;54731;42.600;23.476;2023-09-19T17:42:09;9.57;;;5.50;;
67941;SDS011;54731;42.600;23.476;2023-09-19T17:44:34;9.45;;;5.05;;
67941;SDS011;54731;42.600;23.476;2023-09-19T17:47:00;7.37;;;4.23;;
67941;SDS011;54731;42.600;23.476;2023-09-19T17:49:26;6.13;;;4.40;;
67941;SDS011;54731;42.600;23.476;2023-09-19T17:51:52;5.05;;;4.10;;
67941;SDS011;54731;42.600;23.476;2023-09-19T17:54:17;8.03;;;5.10;;
67941;SDS011;54731;42.600;23.476;2023-09-19T17:56:42;7.33;;;4.47;;
67941;SDS011;54731;42.600;23.476;2023-09-19T17:59:08;6.60;;;4.30;;
67941;SDS011;54731;42.600;23.476;2023-09-19T18:01:33;9.75;;;4.88;;
67941;SDS011;54731;42.600;23.476;2023-09-19T18:03:58;7.00;;;4.10;;
67941;SDS011;54731;42.600;23.476;2023-09-19T18:06:24;5.77;;;3.97;;
67941;SDS011;54731;42.600;23.476;2023-09-19T18:08:50;11.98;;;4.18;;
67941;SDS011;54731;42.600;23.476;2023-09-19T18:11:16;7.00;;;3.97;;
67941;SDS011;54731;42.600;23.476;2023-09-19T18:13:43;7.07;;;4.03;;
67941;SDS011;54731;42.600;23.476;2023-09-19T18:16:09;5.35;;;4.13;;
67941;SDS011;54731;42.600;23.476;2023-09-19T18:18:34;5.53;;;4.00;;
67941;SDS011;54731;42.600;23.476;2023-09-19T18:21:03;7.55;;;4.55;;
67941;SDS011;54731;42.600;23.476;2023-09-19T18:23:29;7.90;;;4.18;;
67941;SDS011;54731;42.600;23.476;2023-09-19T18:25:55;4.97;;;4.00;;
67941;SDS011;54731;42.600;23.476;2023-09-19T18:28:21;6.47;;;4.05;;
67941;SDS011;54731;42.600;23.476;2023-09-19T18:30:46;5.27;;;3.77;;
67941;SDS011;54731;42.600;23.476;2023-09-19T18:33:12;4.90;;;4.13;;
67941;SDS011;54731;42.600;23.476;2023-09-19T18:35:37;9.13;;;4.07;;
67941;SDS011;54731;42.600;23.476;2023-09-19T18:38:02;6.17;;;3.90;;
67941;SDS011;54731;42.600;23.476;2023-09-19T18:40:28;4.30;;;3.90;;
67941;SDS011;54731;42.600;23.476;2023-09-19T18:42:54;6.50;;;4.05;;
67941;SDS011;54731;42.600;23.476;2023-09-19T18:45:20;8.40;;;4.07;;
67941;SDS011;54731;42.600;23.476;2023-09-19T18:47:45;6.23;;;4.03;;
67941;SDS011;54731;42.600;23.476;2023-09-19T18:50:12;6.75;;;4.03;;
67941;SDS011;54731;42.600;23.476;2023-09-19T18:52:37;7.80;;;4.07;;
67941;SDS011;54731;42.600;23.476;2023-09-19T18:55:03;6.82;;;3.78;;
67941;SDS011;54731;42.600;23.476;2023-09-19T18:57:28;6.77;;;3.73;;
67941;SDS011;54731;42.600;23.476;2023-09-19T18:59:53;7.57;;;4.10;;
67941;SDS011;54731;42.600;23.476;2023-09-19T19:02:19;6.00;;;4.10;;
67941;SDS011;54731;42.600;23.476;2023-09-19T19:04:44;5.93;;;4.17;;
67941;SDS011;54731;42.600;23.476;2023-09-19T19:07:09;12.97;;;4.00;;
67941;SDS011;54731;42.600;23.476;2023-09-19T19:09:35;4.83;;;3.67;;
67941;SDS011;54731;42.600;23.476;2023-09-19T19:12:00;8.23;;;4.00;;
67941;SDS011;54731;42.600;23.476;2023-09-19T19:14:26;5.20;;;3.53;;
67941;SDS011;54731;42.600;23.476;2023-09-19T19:16:51;8.73;;;4.30;;
67941;SDS011;54731;42.600;23.476;2023-09-19T19:19:16;8.60;;;4.13;;
67941;SDS011;54731;42.600;23.476;2023-09-19T19:21:42;6.93;;;3.53;;
67941;SDS011;54731;42.600;23.476;2023-09-19T19:24:07;9.10;;;5.03;;
67941;SDS011;54731;42.600;23.476;2023-09-19T19:26:32;5.97;;;3.70;;
67941;SDS011;54731;42.600;23.476;2023-09-19T19:28:58;7.13;;;4.10;;
67941;SDS011;54731;42.600;23.476;2023-09-19T19:31:23;7.03;;;4.10;;
67941;SDS011;54731;42.600;23.476;2023-09-19T19:33:50;10.80;;;4.20;;
67941;SDS011;54731;42.600;23.476;2023-09-19T19:36:15;6.65;;;4.63;;
67941;SDS011;54731;42.600;23.476;2023-09-19T19:38:45;10.47;;;4.73;;
67941;SDS011;54731;42.600;23.476;2023-09-19T19:41:10;5.68;;;4.07;;
67941;SDS011;54731;42.600;23.476;2023-09-19T19:43:36;7.87;;;3.93;;
67941;SDS011;54731;42.600;23.476;2023-09-19T19:46:02;5.93;;;3.90;;
67941;SDS011;54731;42.600;23.476;2023-09-19T19:48:28;6.90;;;3.90;;
67941;SDS011;54731;42.600;23.476;2023-09-19T19:50:54;6.70;;;3.67;;
67941;SDS011;54731;42.600;23.476;2023-09-19T19:53:19;5.57;;;4.23;;
67941;SDS011;54731;42.600;23.476;2023-09-19T19:55:45;5.57;;;4.53;;
67941;SDS011;54731;42.600;23.476;2023-09-19T19:58:11;7.87;;;5.07;;
67941;SDS011;54731;42.600;23.476;2023-09-19T20:00:37;7.60;;;4.45;;
67941;SDS011;54731;42.600;23.476;2023-09-19T20:03:02;8.00;;;4.30;;
67941;SDS011;54731;42.600;23.476;2023-09-19T20:05:28;6.23;;;3.77;;
67941;SDS011;54731;42.600;23.476;2023-09-19T20:07:53;8.60;;;3.83;;
67941;SDS011;54731;42.600;23.476;2023-09-19T20:10:18;4.78;;;3.67;;
67941;SDS011;54731;42.600;23.476;2023-09-19T20:12:44;5.20;;;3.53;;
67941;SDS011;54731;42.600;23.476;2023-09-19T20:15:09;6.93;;;4.43;;
67941;SDS011;54731;42.600;23.476;2023-09-19T20:17:37;7.13;;;5.10;;
67941;SDS011;54731;42.600;23.476;2023-09-19T20:20:04;9.65;;;5.00;;
67941;SDS011;54731;42.600;23.476;2023-09-19T20:22:30;9.13;;;5.20;;
67941;SDS011;54731;42.600;23.476;2023-09-19T20:24:55;9.90;;;5.50;;
67941;SDS011;54731;42.600;23.476;2023-09-19T20:27:20;7.43;;;5.23;;
67941;SDS011;54731;42.600;23.476;2023-09-19T20:29:45;9.07;;;4.70;;
67941;SDS011;54731;42.600;23.476;2023-09-19T20:32:11;9.53;;;5.07;;
67941;SDS011;54731;42.600;23.476;2023-09-19T20:34:36;8.07;;;4.90;;
67941;SDS011;54731;42.600;23.476;2023-09-19T20:37:01;7.67;;;4.27;;
67941;SDS011;54731;42.600;23.476;2023-09-19T20:39:27;8.52;;;4.72;;
67941;SDS011;54731;42.600;23.476;2023-09-19T20:41:53;7.95;;;4.60;;
67941;SDS011;54731;42.600;23.476;2023-09-19T20:44:18;11.13;;;4.57;;
67941;SDS011;54731;42.600;23.476;2023-09-19T20:46:43;13.03;;;5.10;;
67941;SDS011;54731;42.600;23.476;2023-09-19T20:49:08;14.53;;;6.37;;
67941;SDS011;54731;42.600;23.476;2023-09-19T20:51:34;16.90;;;6.15;;
67941;SDS011;54731;42.600;23.476;2023-09-19T20:53:59;15.77;;;6.28;;
67941;SDS011;54731;42.600;23.476;2023-09-19T20:56:24;10.07;;;6.40;;
67941;SDS011;54731;42.600;23.476;2023-09-19T20:58:50;13.70;;;8.13;;
67941;SDS011;54731;42.600;23.476;2023-09-19T21:01:15;12.57;;;6.83;;
67941;SDS011;54731;42.600;23.476;2023-09-19T21:03:40;13.17;;;6.53;;
67941;SDS011;54731;42.600;23.476;2023-09-19T21:06:06;13.33;;;6.83;;
67941;SDS011;54731;42.600;23.476;2023-09-19T21:08:33;12.13;;;6.90;;
67941;SDS011;54731;42.600;23.476;2023-09-19T21:10:59;12.65;;;7.55;;
67941;SDS011;54731;42.600;23.476;2023-09-19T21:13:25;10.47;;;6.87;;
67941;SDS011;54731;42.600;23.476;2023-09-19T21:15:50;14.90;;;7.30;;
67941;SDS011;54731;42.600;23.476;2023-09-19T21:18:16;11.50;;;6.80;;
67941;SDS011;54731;42.600;23.476;2023-09-19T21:20:41;10.50;;;7.80;;
67941;SDS011;54731;42.600;23.476;2023-09-19T21:23:06;9.53;;;6.67;;
67941;SDS011;54731;42.600;23.476;2023-09-19T21:25:32;11.40;;;6.53;;
67941;SDS011;54731;42.600;23.476;2023-09-19T21:27:57;8.17;;;6.13;;
67941;SDS011;54731;42.600;23.476;2023-09-19T21:30:22;10.82;;;6.40;;
67941;SDS011;54731;42.600;23.476;2023-09-19T21:32:48;9.20;;;6.30;;
67941;SDS011;54731;42.600;23.476;2023-09-19T21:35:13;9.67;;;6.33;;
67941;SDS011;54731;42.600;23.476;2023-09-19T21:37:38;11.90;;;6.67;;
67941;SDS011;54731;42.600;23.476;2023-09-19T21:40:04;8.23;;;5.37;;
67941;SDS011;54731;42.600;23.476;2023-09-19T21:42:30;10.15;;;6.00;;
67941;SDS011;54731;42.600;23.476;2023-09-19T21:44:55;11.17;;;6.13;;
67941;SDS011;54731;42.600;23.476;2023-09-19T21:47:21;9.10;;;5.50;;
67941;SDS011;54731;42.600;23.476;2023-09-19T21:49:46;6.95;;;4.95;;
67941;SDS011;54731;42.600;23.476;2023-09-19T21:52:11;8.23;;;4.63;;
67941;SDS011;54731;42.600;23.476;2023-09-19T21:54:37;6.67;;;4.60;;
67941;SDS011;54731;42.600;23.476;2023-09-19T21:57:02;6.90;;;4.70;;
67941;SDS011;54731;42.600;23.476;2023-09-19T21:59:27;5.73;;;4.57;;
67941;SDS011;54731;42.600;23.476;2023-09-19T22:01:53;5.50;;;4.17;;
67941;SDS011;54731;42.600;23.476;2023-09-19T22:04:18;5.90;;;3.73;;
67941;SDS011;54731;42.600;23.476;2023-09-19T22:06:43;6.93;;;4.00;;
67941;SDS011;54731;42.600;23.476;2023-09-19T22:09:08;5.60;;;3.55;;
67941;SDS011;54731;42.600;23.476;2023-09-19T22:11:34;6.33;;;3.60;;
67941;SDS011;54731;42.600;23.476;2023-09-19T22:13:59;5.87;;;3.50;;
67941;SDS011;54731;42.600;23.476;2023-09-19T22:16:24;6.53;;;2.70;;
67941;SDS011;54731;42.600;23.476;2023-09-19T22:18:50;7.47;;;2.43;;
67941;SDS011;54731;42.600;23.476;2023-09-19T22:21:17;3.53;;;2.50;;
67941;SDS011;54731;42.600;23.476;2023-09-19T22:23:44;5.00;;;2.38;;
67941;SDS011;54731;42.600;23.476;2023-09-19T22:26:10;4.27;;;2.60;;
67941;SDS011;54731;42.600;23.476;2023-09-19T22:28:36;5.05;;;2.97;;
67941;SDS011;54731;42.600;23.476;2023-09-19T22:31:05;3.80;;;2.90;;
67941;SDS011;54731;42.600;23.476;2023-09-19T22:33:37;4.88;;;3.40;;
67941;SDS011;54731;42.600;23.476;2023-09-19T22:36:03;8.23;;;3.88;;
67941;SDS011;54731;42.600;23.476;2023-09-19T22:38:28;5.57;;;3.92;;
67941;SDS011;54731;42.600;23.476;2023-09-19T22:40:54;5.10;;;4.00;;
67941;SDS011;54731;42.600;23.476;2023-09-19T22:43:22;6.97;;;4.00;;
67941;SDS011;54731;42.600;23.476;2023-09-19T22:45:48;4.97;;;4.25;;
67941;SDS011;54731;42.600;23.476;2023-09-19T22:48:13;6.23;;;4.13;;
67941;SDS011;54731;42.600;23.476;2023-09-19T22:50:39;6.40;;;5.00;;
67941;SDS011;54731;42.600;23.476;2023-09-19T22:53:04;7.13;;;5.37;;
67941;SDS011;54731;42.600;23.476;2023-09-19T22:55:29;7.53;;;5.22;;
67941;SDS011;54731;42.600;23.476;2023-09-19T22:58:00;7.97;;;4.97;;
67941;SDS011;54731;42.600;23.476;2023-09-19T23:00:25;6.60;;;4.77;;
67941;SDS011;54731;42.600;23.476;2023-09-19T23:02:51;7.30;;;4.85;;
67941;SDS011;54731;42.600;23.476;2023-09-19T23:05:16;7.10;;;5.00;;
67941;SDS011;54731;42.600;23.476;2023-09-19T23:07:41;8.33;;;5.23;;
67941;SDS011;54731;42.600;23.476;2023-09-19T23:10:13;7.25;;;4.95;;
67941;SDS011;54731;42.600;23.476;2023-09-19T23:12:38;6.50;;;5.03;;
67941;SDS011;54731;42.600;23.476;2023-09-19T23:15:04;5.63;;;4.50;;
67941;SDS011;54731;42.600;23.476;2023-09-19T23:17:32;6.22;;;4.75;;
67941;SDS011;54731;42.600;23.476;2023-09-19T23:20:00;8.70;;;4.75;;
67941;SDS011;54731;42.600;23.476;2023-09-19T23:22:25;5.93;;;4.67;;
67941;SDS011;54731;42.600;23.476;2023-09-19T23:24:51;7.47;;;4.70;;
67941;SDS011;54731;42.600;23.476;2023-09-19T23:27:16;5.93;;;4.60;;
67941;SDS011;54731;42.600;23.476;2023-09-19T23:29:42;5.67;;;5.07;;
67941;SDS011;54731;42.600;23.476;2023-09-19T23:32:07;6.57;;;4.70;;
67941;SDS011;54731;42.600;23.476;2023-09-19T23:34:32;7.27;;;5.17;;
67941;SDS011;54731;42.600;23.476;2023-09-19T23:36:57;9.33;;;5.47;;
67941;SDS011;54731;42.600;23.476;2023-09-19T23:39:23;6.90;;;5.60;;
67941;SDS011;54731;42.600;23.476;2023-09-19T23:41:48;5.83;;;5.17;;
67941;SDS011;54731;42.600;23.476;2023-09-19T23:44:13;6.27;;;4.80;;
67941;SDS011;54731;42.600;23.476;2023-09-19T23:46:39;7.83;;;5.23;;
67941;SDS011;54731;42.600;23.476;2023-09-19T23:49:05;7.38;;;4.95;;
67941;SDS011;54731;42.600;23.476;2023-09-19T23:51:30;7.53;;;5.13;;
67941;SDS011;54731;42.600;23.476;2023-09-19T23:53:55;7.87;;;5.00;;
67941;SDS011;54731;42.600;23.476;2023-09-19T23:56:21;8.10;;;4.83;;
67941;SDS011;54731;42.600;23.476;2023-09-19T23:58:46;6.43;;;5.27;;
